sensor_id;sensor_type;location;lat;lon;timestamp;P1;durP1;ratioP1;P2;durP2;ratioP2
19231;SDS011;9750;48.730;10.294;2023-04-15T00:00:17;4.23;;;3.80;;
19231;SDS011;9750;48.730;10.294;2023-04-15T00:02:46;4.70;;;4.30;;
19231;SDS011;9750;48.730;10.294;2023-04-15T00:05:13;4.87;;;4.40;;
19231;SDS011;9750;48.730;10.294;2023-04-15T00:07:41;4.03;;;3.60;;
19231;SDS011;9750;48.730;10.294;2023-04-15T00:10:10;4.57;;;4.17;;
19231;SDS011;9750;48.730;10.294;2023-04-15T00:12:37;5.37;;;3.97;;
19231;SDS011;9750;48.730;10.294;2023-04-15T00:15:04;5.10;;;4.60;;
19231;SDS011;9750;48.730;10.294;2023-04-15T00:17:33;4.53;;;4.03;;
19231;SDS011;9750;48.730;10.294;2023-04-15T00:20:04;4.70;;;4.30;;
19231;SDS011;9750;48.730;10.294;2023-04-15T00:22:32;4.30;;;3.90;;
19231;SDS011;9750;48.730;10.294;2023-04-15T00:24:59;5.37;;;4.27;;
19231;SDS011;9750;48.730;10.294;2023-04-15T00:27:27;4.60;;;4.20;;
19231;SDS011;9750;48.730;10.294;2023-04-15T00:29:55;4.63;;;4.17;;
19231;SDS011;9750;48.730;10.294;2023-04-15T00:32:22;4.63;;;4.07;;
19231;SDS011;9750;48.730;10.294;2023-04-15T00:34:49;6.00;;;4.43;;
19231;SDS011;9750;48.730;10.294;2023-04-15T00:37:18;5.33;;;4.80;;
19231;SDS011;9750;48.730;10.294;2023-04-15T00:39:45;4.80;;;4.23;;
19231;SDS011;9750;48.730;10.294;2023-04-15T00:42:12;6.17;;;4.57;;
19231;SDS011;9750;48.730;10.294;2023-04-15T00:44:40;5.67;;;4.30;;
19231;SDS011;9750;48.730;10.294;2023-04-15T00:47:08;5.43;;;4.10;;
19231;SDS011;9750;48.730;10.294;2023-04-15T00:49:36;4.90;;;3.93;;
19231;SDS011;9750;48.730;10.294;2023-04-15T00:52:03;4.93;;;4.03;;
19231;SDS011;9750;48.730;10.294;2023-04-15T00:54:32;4.13;;;3.73;;
19231;SDS011;9750;48.730;10.294;2023-04-15T00:56:59;5.10;;;4.20;;
19231;SDS011;9750;48.730;10.294;2023-04-15T00:59:27;4.00;;;3.70;;
19231;SDS011;9750;48.730;10.294;2023-04-15T01:01:55;4.77;;;3.67;;
19231;SDS011;9750;48.730;10.294;2023-04-15T01:04:23;4.80;;;4.30;;
19231;SDS011;9750;48.730;10.294;2023-04-15T01:06:50;6.93;;;4.60;;
19231;SDS011;9750;48.730;10.294;2023-04-15T01:09:18;7.77;;;4.47;;
19231;SDS011;9750;48.730;10.294;2023-04-15T01:11:47;4.13;;;3.83;;
19231;SDS011;9750;48.730;10.294;2023-04-15T01:14:14;4.93;;;4.37;;
19231;SDS011;9750;48.730;10.294;2023-04-15T01:16:41;5.07;;;4.17;;
19231;SDS011;9750;48.730;10.294;2023-04-15T01:19:09;4.73;;;3.93;;
19231;SDS011;9750;48.730;10.294;2023-04-15T01:21:36;6.83;;;4.77;;
19231;SDS011;9750;48.730;10.294;2023-04-15T01:24:07;5.33;;;4.40;;
19231;SDS011;9750;48.730;10.294;2023-04-15T01:26:37;4.30;;;3.43;;
19231;SDS011;9750;48.730;10.294;2023-04-15T01:29:05;6.37;;;4.53;;
19231;SDS011;9750;48.730;10.294;2023-04-15T01:31:32;5.10;;;4.60;;
19231;SDS011;9750;48.730;10.294;2023-04-15T01:34:00;5.77;;;4.77;;
19231;SDS011;9750;48.730;10.294;2023-04-15T01:36:27;5.30;;;4.10;;
19231;SDS011;9750;48.730;10.294;2023-04-15T01:38:55;4.87;;;4.37;;
19231;SDS011;9750;48.730;10.294;2023-04-15T01:41:24;5.67;;;4.33;;
19231;SDS011;9750;48.730;10.294;2023-04-15T01:43:53;7.60;;;4.80;;
19231;SDS011;9750;48.730;10.294;2023-04-15T01:46:21;5.13;;;3.77;;
19231;SDS011;9750;48.730;10.294;2023-04-15T01:48:49;4.90;;;4.40;;
19231;SDS011;9750;48.730;10.294;2023-04-15T01:51:16;5.27;;;4.37;;
19231;SDS011;9750;48.730;10.294;2023-04-15T01:53:44;6.70;;;5.30;;
19231;SDS011;9750;48.730;10.294;2023-04-15T01:56:11;5.10;;;4.60;;
19231;SDS011;9750;48.730;10.294;2023-04-15T01:58:38;5.53;;;5.03;;
19231;SDS011;9750;48.730;10.294;2023-04-15T02:01:07;6.17;;;5.03;;
19231;SDS011;9750;48.730;10.294;2023-04-15T02:03:36;5.03;;;4.63;;
19231;SDS011;9750;48.730;10.294;2023-04-15T02:06:04;5.67;;;4.50;;
19231;SDS011;9750;48.730;10.294;2023-04-15T02:08:31;5.80;;;4.80;;
19231;SDS011;9750;48.730;10.294;2023-04-15T02:10:58;5.70;;;5.00;;
19231;SDS011;9750;48.730;10.294;2023-04-15T02:13:26;5.60;;;4.60;;
19231;SDS011;9750;48.730;10.294;2023-04-15T02:15:53;5.80;;;5.00;;
19231;SDS011;9750;48.730;10.294;2023-04-15T02:18:22;5.27;;;4.77;;
19231;SDS011;9750;48.730;10.294;2023-04-15T02:20:50;4.83;;;4.43;;
19231;SDS011;9750;48.730;10.294;2023-04-15T02:23:17;5.17;;;4.67;;
19231;SDS011;9750;48.730;10.294;2023-04-15T02:25:45;7.10;;;5.07;;
19231;SDS011;9750;48.730;10.294;2023-04-15T02:28:12;5.30;;;4.40;;
19231;SDS011;9750;48.730;10.294;2023-04-15T02:30:39;4.40;;;3.63;;
19231;SDS011;9750;48.730;10.294;2023-04-15T02:33:06;6.90;;;3.57;;
19231;SDS011;9750;48.730;10.294;2023-04-15T02:35:35;4.73;;;4.10;;
19231;SDS011;9750;48.730;10.294;2023-04-15T02:38:06;5.03;;;4.07;;
19231;SDS011;9750;48.730;10.294;2023-04-15T02:40:34;4.50;;;3.50;;
19231;SDS011;9750;48.730;10.294;2023-04-15T02:43:01;3.93;;;3.63;;
19231;SDS011;9750;48.730;10.294;2023-04-15T02:45:30;5.60;;;4.20;;
19231;SDS011;9750;48.730;10.294;2023-04-15T02:47:58;3.97;;;3.57;;
19231;SDS011;9750;48.730;10.294;2023-04-15T02:50:28;3.97;;;3.57;;
19231;SDS011;9750;48.730;10.294;2023-04-15T02:52:57;3.67;;;3.37;;
19231;SDS011;9750;48.730;10.294;2023-04-15T02:55:25;4.00;;;3.60;;
19231;SDS011;9750;48.730;10.294;2023-04-15T02:57:52;4.83;;;3.90;;
19231;SDS011;9750;48.730;10.294;2023-04-15T03:00:19;3.30;;;2.90;;
19231;SDS011;9750;48.730;10.294;2023-04-15T03:02:49;4.80;;;3.80;;
19231;SDS011;9750;48.730;10.294;2023-04-15T03:05:20;4.17;;;3.27;;
19231;SDS011;9750;48.730;10.294;2023-04-15T03:07:49;3.33;;;3.00;;
19231;SDS011;9750;48.730;10.294;2023-04-15T03:10:18;3.60;;;3.30;;
19231;SDS011;9750;48.730;10.294;2023-04-15T03:12:46;4.93;;;3.83;;
19231;SDS011;9750;48.730;10.294;2023-04-15T03:15:13;3.90;;;3.60;;
19231;SDS011;9750;48.730;10.294;2023-04-15T03:21:03;6.33;;;4.67;;
19231;SDS011;9750;48.730;10.294;2023-04-15T03:23:30;8.23;;;6.30;;
19231;SDS011;9750;48.730;10.294;2023-04-15T03:26:02;6.70;;;5.70;;
19231;SDS011;9750;48.730;10.294;2023-04-15T03:28:29;7.10;;;5.60;;
19231;SDS011;9750;48.730;10.294;2023-04-15T03:30:57;5.90;;;5.30;;
19231;SDS011;9750;48.730;10.294;2023-04-15T03:33:24;6.33;;;5.43;;
19231;SDS011;9750;48.730;10.294;2023-04-15T03:35:51;7.00;;;5.07;;
19231;SDS011;9750;48.730;10.294;2023-04-15T03:38:19;5.73;;;4.33;;
19231;SDS011;9750;48.730;10.294;2023-04-15T03:40:46;5.97;;;4.83;;
19231;SDS011;9750;48.730;10.294;2023-04-15T03:43:15;5.37;;;4.87;;
19231;SDS011;9750;48.730;10.294;2023-04-15T03:45:42;7.73;;;5.77;;
19231;SDS011;9750;48.730;10.294;2023-04-15T03:48:09;6.13;;;5.30;;
19231;SDS011;9750;48.730;10.294;2023-04-15T03:50:37;6.03;;;5.40;;
19231;SDS011;9750;48.730;10.294;2023-04-15T03:53:04;6.23;;;4.27;;
19231;SDS011;9750;48.730;10.294;2023-04-15T03:55:31;5.67;;;5.10;;
19231;SDS011;9750;48.730;10.294;2023-04-15T03:57:58;6.27;;;5.27;;
19231;SDS011;9750;48.730;10.294;2023-04-15T04:00:27;5.97;;;4.10;;
19231;SDS011;9750;48.730;10.294;2023-04-15T04:02:54;6.47;;;4.80;;
19231;SDS011;9750;48.730;10.294;2023-04-15T04:05:21;5.07;;;4.57;;
19231;SDS011;9750;48.730;10.294;2023-04-15T04:07:49;4.57;;;4.17;;
19231;SDS011;9750;48.730;10.294;2023-04-15T04:10:16;5.40;;;4.90;;
19231;SDS011;9750;48.730;10.294;2023-04-15T04:12:43;4.63;;;4.23;;
19231;SDS011;9750;48.730;10.294;2023-04-15T04:15:10;5.63;;;5.10;;
19231;SDS011;9750;48.730;10.294;2023-04-15T04:17:39;6.40;;;3.93;;
19231;SDS011;9750;48.730;10.294;2023-04-15T04:20:07;5.60;;;4.10;;
19231;SDS011;9750;48.730;10.294;2023-04-15T04:22:36;3.83;;;2.97;;
19231;SDS011;9750;48.730;10.294;2023-04-15T04:25:05;3.50;;;3.20;;
19231;SDS011;9750;48.730;10.294;2023-04-15T04:27:33;3.60;;;2.87;;
19231;SDS011;9750;48.730;10.294;2023-04-15T04:30:00;4.77;;;3.23;;
19231;SDS011;9750;48.730;10.294;2023-04-15T04:32:27;3.07;;;2.57;;
19231;SDS011;9750;48.730;10.294;2023-04-15T04:34:56;3.10;;;2.80;;
19231;SDS011;9750;48.730;10.294;2023-04-15T04:37:23;5.93;;;3.10;;
19231;SDS011;9750;48.730;10.294;2023-04-15T04:39:50;5.53;;;4.20;;
19231;SDS011;9750;48.730;10.294;2023-04-15T04:42:18;4.90;;;4.27;;
19231;SDS011;9750;48.730;10.294;2023-04-15T04:44:45;5.27;;;4.60;;
19231;SDS011;9750;48.730;10.294;2023-04-15T04:47:12;5.70;;;5.10;;
19231;SDS011;9750;48.730;10.294;2023-04-15T04:49:39;5.47;;;4.30;;
19231;SDS011;9750;48.730;10.294;2023-04-15T04:52:08;5.53;;;4.60;;
19231;SDS011;9750;48.730;10.294;2023-04-15T04:54:35;4.80;;;4.33;;
19231;SDS011;9750;48.730;10.294;2023-04-15T04:57:03;5.93;;;4.93;;
19231;SDS011;9750;48.730;10.294;2023-04-15T04:59:31;4.90;;;4.23;;
19231;SDS011;9750;48.730;10.294;2023-04-15T05:01:59;7.03;;;5.07;;
19231;SDS011;9750;48.730;10.294;2023-04-15T05:04:26;8.53;;;5.00;;
19231;SDS011;9750;48.730;10.294;2023-04-15T05:06:53;4.13;;;3.83;;
19231;SDS011;9750;48.730;10.294;2023-04-15T05:09:22;5.73;;;5.07;;
19231;SDS011;9750;48.730;10.294;2023-04-15T05:11:49;4.50;;;4.10;;
19231;SDS011;9750;48.730;10.294;2023-04-15T05:14:16;5.07;;;4.57;;
19231;SDS011;9750;48.730;10.294;2023-04-15T05:16:44;4.70;;;4.23;;
19231;SDS011;9750;48.730;10.294;2023-04-15T05:19:11;4.80;;;4.30;;
19231;SDS011;9750;48.730;10.294;2023-04-15T05:21:38;4.93;;;3.80;;
19231;SDS011;9750;48.730;10.294;2023-04-15T05:24:05;8.27;;;4.20;;
19231;SDS011;9750;48.730;10.294;2023-04-15T05:26:34;5.00;;;3.90;;
19231;SDS011;9750;48.730;10.294;2023-04-15T05:29:01;7.37;;;4.10;;
19231;SDS011;9750;48.730;10.294;2023-04-15T05:31:29;6.20;;;3.67;;
19231;SDS011;9750;48.730;10.294;2023-04-15T05:33:56;5.43;;;4.03;;
19231;SDS011;9750;48.730;10.294;2023-04-15T05:36:23;6.27;;;3.97;;
19231;SDS011;9750;48.730;10.294;2023-04-15T05:38:52;5.63;;;4.27;;
19231;SDS011;9750;48.730;10.294;2023-04-15T05:41:19;5.27;;;4.67;;
19231;SDS011;9750;48.730;10.294;2023-04-15T05:43:48;6.80;;;5.93;;
19231;SDS011;9750;48.730;10.294;2023-04-15T05:46:15;8.10;;;6.17;;
19231;SDS011;9750;48.730;10.294;2023-04-15T05:48:42;8.00;;;6.23;;
19231;SDS011;9750;48.730;10.294;2023-04-15T05:51:09;10.27;;;8.63;;
19231;SDS011;9750;48.730;10.294;2023-04-15T05:53:37;9.87;;;7.73;;
19231;SDS011;9750;48.730;10.294;2023-04-15T05:56:05;9.70;;;7.10;;
19231;SDS011;9750;48.730;10.294;2023-04-15T05:58:33;8.27;;;6.80;;
19231;SDS011;9750;48.730;10.294;2023-04-15T06:01:01;11.20;;;8.47;;
19231;SDS011;9750;48.730;10.294;2023-04-15T06:03:29;19.73;;;17.63;;
19231;SDS011;9750;48.730;10.294;2023-04-15T06:05:57;18.17;;;14.50;;
19231;SDS011;9750;48.730;10.294;2023-04-15T06:08:25;28.93;;;23.17;;
19231;SDS011;9750;48.730;10.294;2023-04-15T06:10:52;23.53;;;20.47;;
19231;SDS011;9750;48.730;10.294;2023-04-15T06:13:19;19.87;;;16.53;;
19231;SDS011;9750;48.730;10.294;2023-04-15T06:15:46;12.43;;;10.60;;
19231;SDS011;9750;48.730;10.294;2023-04-15T06:18:22;10.70;;;9.20;;
19231;SDS011;9750;48.730;10.294;2023-04-15T06:20:49;20.47;;;16.63;;
19231;SDS011;9750;48.730;10.294;2023-04-15T06:30:05;6.47;;;5.23;;
19231;SDS011;9750;48.730;10.294;2023-04-15T06:32:33;9.33;;;4.73;;
19231;SDS011;9750;48.730;10.294;2023-04-15T06:35:02;5.10;;;3.37;;
19231;SDS011;9750;48.730;10.294;2023-04-15T06:37:30;3.73;;;3.20;;
19231;SDS011;9750;48.730;10.294;2023-04-15T06:39:59;4.03;;;3.50;;
19231;SDS011;9750;48.730;10.294;2023-04-15T06:42:31;5.13;;;3.17;;
19231;SDS011;9750;48.730;10.294;2023-04-15T06:44:59;4.37;;;3.30;;
19231;SDS011;9750;48.730;10.294;2023-04-15T06:47:26;5.53;;;3.63;;
19231;SDS011;9750;48.730;10.294;2023-04-15T06:49:54;6.07;;;3.60;;
19231;SDS011;9750;48.730;10.294;2023-04-15T06:52:22;4.60;;;3.13;;
19231;SDS011;9750;48.730;10.294;2023-04-15T06:54:50;4.53;;;3.37;;
19231;SDS011;9750;48.730;10.294;2023-04-15T06:57:17;5.10;;;3.70;;
19231;SDS011;9750;48.730;10.294;2023-04-15T06:59:44;4.20;;;3.27;;
19231;SDS011;9750;48.730;10.294;2023-04-15T07:02:12;5.83;;;3.07;;
19231;SDS011;9750;48.730;10.294;2023-04-15T07:04:39;6.57;;;3.40;;
19231;SDS011;9750;48.730;10.294;2023-04-15T07:07:07;5.60;;;3.47;;
19231;SDS011;9750;48.730;10.294;2023-04-15T07:09:42;6.43;;;3.30;;
19231;SDS011;9750;48.730;10.294;2023-04-15T07:12:09;4.27;;;3.30;;
19231;SDS011;9750;48.730;10.294;2023-04-15T07:14:37;3.97;;;3.57;;
19231;SDS011;9750;48.730;10.294;2023-04-15T07:17:04;4.07;;;3.30;;
19231;SDS011;9750;48.730;10.294;2023-04-15T07:19:31;6.60;;;4.27;;
19231;SDS011;9750;48.730;10.294;2023-04-15T07:22:01;3.67;;;3.37;;
19231;SDS011;9750;48.730;10.294;2023-04-15T07:24:28;7.27;;;3.97;;
19231;SDS011;9750;48.730;10.294;2023-04-15T07:26:57;6.03;;;4.07;;
19231;SDS011;9750;48.730;10.294;2023-04-15T07:29:26;5.43;;;3.70;;
19231;SDS011;9750;48.730;10.294;2023-04-15T07:31:53;5.43;;;4.10;;
19231;SDS011;9750;48.730;10.294;2023-04-15T07:34:21;4.90;;;3.57;;
19231;SDS011;9750;48.730;10.294;2023-04-15T07:36:48;6.03;;;3.60;;
19231;SDS011;9750;48.730;10.294;2023-04-15T07:39:16;7.27;;;4.37;;
19231;SDS011;9750;48.730;10.294;2023-04-15T07:41:43;4.87;;;4.00;;
19231;SDS011;9750;48.730;10.294;2023-04-15T07:44:12;9.73;;;7.87;;
19231;SDS011;9750;48.730;10.294;2023-04-15T07:46:39;8.20;;;7.37;;
19231;SDS011;9750;48.730;10.294;2023-04-15T07:49:07;4.83;;;3.90;;
19231;SDS011;9750;48.730;10.294;2023-04-15T07:51:34;7.03;;;3.93;;
19231;SDS011;9750;48.730;10.294;2023-04-15T07:54:17;5.77;;;4.07;;
19231;SDS011;9750;48.730;10.294;2023-04-15T07:56:44;6.13;;;3.97;;
19231;SDS011;9750;48.730;10.294;2023-04-15T07:59:13;4.87;;;4.00;;
19231;SDS011;9750;48.730;10.294;2023-04-15T08:01:44;6.03;;;3.80;;
19231;SDS011;9750;48.730;10.294;2023-04-15T08:04:11;5.70;;;3.93;;
19231;SDS011;9750;48.730;10.294;2023-04-15T08:06:41;4.13;;;3.73;;
19231;SDS011;9750;48.730;10.294;2023-04-15T08:09:14;5.87;;;4.10;;
19231;SDS011;9750;48.730;10.294;2023-04-15T08:11:41;5.20;;;3.77;;
19231;SDS011;9750;48.730;10.294;2023-04-15T08:14:09;4.47;;;3.80;;
19231;SDS011;9750;48.730;10.294;2023-04-15T08:16:38;4.27;;;3.80;;
19231;SDS011;9750;48.730;10.294;2023-04-15T08:19:08;3.50;;;3.20;;
19231;SDS011;9750;48.730;10.294;2023-04-15T08:23:05;5.57;;;3.53;;
19231;SDS011;9750;48.730;10.294;2023-04-15T08:25:26;5.33;;;3.87;;
19231;SDS011;9750;48.730;10.294;2023-04-15T08:28:34;5.53;;;3.97;;
19231;SDS011;9750;48.730;10.294;2023-04-15T08:31:21;4.10;;;3.67;;
19231;SDS011;9750;48.730;10.294;2023-04-15T08:33:53;5.67;;;4.23;;
19231;SDS011;9750;48.730;10.294;2023-04-15T08:36:22;5.53;;;3.67;;
19231;SDS011;9750;48.730;10.294;2023-04-15T08:38:51;4.17;;;3.77;;
19231;SDS011;9750;48.730;10.294;2023-04-15T08:41:37;4.27;;;3.87;;
19231;SDS011;9750;48.730;10.294;2023-04-15T08:44:22;4.43;;;3.73;;
19231;SDS011;9750;48.730;10.294;2023-04-15T08:46:50;4.40;;;4.00;;
19231;SDS011;9750;48.730;10.294;2023-04-15T08:49:20;4.17;;;3.77;;
19231;SDS011;9750;48.730;10.294;2023-04-15T08:51:56;4.63;;;3.43;;
19231;SDS011;9750;48.730;10.294;2023-04-15T08:57:35;8.80;;;4.63;;
19231;SDS011;9750;48.730;10.294;2023-04-15T09:00:06;5.90;;;4.17;;
19231;SDS011;9750;48.730;10.294;2023-04-15T09:02:38;4.83;;;4.33;;
19231;SDS011;9750;48.730;10.294;2023-04-15T09:05:12;5.97;;;3.70;;
19231;SDS011;9750;48.730;10.294;2023-04-15T09:07:40;5.33;;;3.77;;
19231;SDS011;9750;48.730;10.294;2023-04-15T09:10:10;5.47;;;3.70;;
19231;SDS011;9750;48.730;10.294;2023-04-15T09:12:41;3.97;;;3.50;;
19231;SDS011;9750;48.730;10.294;2023-04-15T09:15:15;6.00;;;4.00;;
19231;SDS011;9750;48.730;10.294;2023-04-15T09:20:41;5.37;;;4.40;;
19231;SDS011;9750;48.730;10.294;2023-04-15T09:23:34;5.53;;;4.73;;
19231;SDS011;9750;48.730;10.294;2023-04-15T09:26:15;7.80;;;4.23;;
19231;SDS011;9750;48.730;10.294;2023-04-15T09:32:51;6.33;;;4.30;;
19231;SDS011;9750;48.730;10.294;2023-04-15T09:35:19;6.43;;;4.87;;
19231;SDS011;9750;48.730;10.294;2023-04-15T09:37:51;5.70;;;4.20;;
19231;SDS011;9750;48.730;10.294;2023-04-15T09:40:31;7.20;;;4.83;;
19231;SDS011;9750;48.730;10.294;2023-04-15T09:42:59;6.17;;;4.73;;
19231;SDS011;9750;48.730;10.294;2023-04-15T09:45:34;6.50;;;5.63;;
19231;SDS011;9750;48.730;10.294;2023-04-15T09:54:56;8.33;;;5.67;;
19231;SDS011;9750;48.730;10.294;2023-04-15T09:57:25;9.07;;;5.80;;
19231;SDS011;9750;48.730;10.294;2023-04-15T10:00:00;5.97;;;5.37;;
19231;SDS011;9750;48.730;10.294;2023-04-15T10:02:27;5.53;;;4.77;;
19231;SDS011;9750;48.730;10.294;2023-04-15T10:04:56;6.20;;;5.00;;
19231;SDS011;9750;48.730;10.294;2023-04-15T10:07:24;6.67;;;5.13;;
19231;SDS011;9750;48.730;10.294;2023-04-15T10:09:52;5.43;;;4.93;;
19231;SDS011;9750;48.730;10.294;2023-04-15T10:12:22;8.20;;;4.97;;
19231;SDS011;9750;48.730;10.294;2023-04-15T10:14:51;7.47;;;5.23;;
19231;SDS011;9750;48.730;10.294;2023-04-15T10:17:24;7.10;;;4.87;;
19231;SDS011;9750;48.730;10.294;2023-04-15T10:19:54;8.47;;;5.40;;
19231;SDS011;9750;48.730;10.294;2023-04-15T10:22:21;6.70;;;5.10;;
19231;SDS011;9750;48.730;10.294;2023-04-15T10:24:49;6.93;;;4.93;;
19231;SDS011;9750;48.730;10.294;2023-04-15T10:27:17;6.00;;;5.00;;
19231;SDS011;9750;48.730;10.294;2023-04-15T10:29:47;6.93;;;5.03;;
19231;SDS011;9750;48.730;10.294;2023-04-15T10:32:16;6.60;;;5.50;;
19231;SDS011;9750;48.730;10.294;2023-04-15T10:34:46;8.40;;;5.40;;
19231;SDS011;9750;48.730;10.294;2023-04-15T10:37:19;6.70;;;5.80;;
19231;SDS011;9750;48.730;10.294;2023-04-15T10:39:47;6.37;;;4.87;;
19231;SDS011;9750;48.730;10.294;2023-04-15T10:42:15;6.57;;;5.03;;
19231;SDS011;9750;48.730;10.294;2023-04-15T10:44:44;7.43;;;5.13;;
19231;SDS011;9750;48.730;10.294;2023-04-15T10:50:35;7.17;;;5.43;;
19231;SDS011;9750;48.730;10.294;2023-04-15T10:53:03;6.80;;;5.60;;
19231;SDS011;9750;48.730;10.294;2023-04-15T10:55:31;9.43;;;5.47;;
19231;SDS011;9750;48.730;10.294;2023-04-15T10:58:00;6.60;;;6.00;;
19231;SDS011;9750;48.730;10.294;2023-04-15T11:00:28;7.50;;;5.60;;
19231;SDS011;9750;48.730;10.294;2023-04-15T11:02:57;8.40;;;6.50;;
19231;SDS011;9750;48.730;10.294;2023-04-15T11:05:50;8.83;;;5.70;;
19231;SDS011;9750;48.730;10.294;2023-04-15T11:08:18;6.60;;;5.90;;
19231;SDS011;9750;48.730;10.294;2023-04-15T11:10:49;6.47;;;5.40;;
19231;SDS011;9750;48.730;10.294;2023-04-15T11:13:24;6.90;;;5.83;;
19231;SDS011;9750;48.730;10.294;2023-04-15T11:15:57;6.73;;;6.03;;
19231;SDS011;9750;48.730;10.294;2023-04-15T11:18:26;6.10;;;4.93;;
19231;SDS011;9750;48.730;10.294;2023-04-15T11:21:00;7.97;;;5.47;;
19231;SDS011;9750;48.730;10.294;2023-04-15T11:23:29;6.30;;;5.57;;
19231;SDS011;9750;48.730;10.294;2023-04-15T11:26:05;7.03;;;5.23;;
19231;SDS011;9750;48.730;10.294;2023-04-15T11:28:36;5.73;;;4.70;;
19231;SDS011;9750;48.730;10.294;2023-04-15T11:31:08;4.67;;;3.97;;
19231;SDS011;9750;48.730;10.294;2023-04-15T11:33:36;4.40;;;3.20;;
19231;SDS011;9750;48.730;10.294;2023-04-15T11:36:20;4.10;;;3.00;;
19231;SDS011;9750;48.730;10.294;2023-04-15T11:38:51;4.00;;;3.50;;
19231;SDS011;9750;48.730;10.294;2023-04-15T11:41:19;4.13;;;3.43;;
19231;SDS011;9750;48.730;10.294;2023-04-15T11:43:47;4.83;;;3.10;;
19231;SDS011;9750;48.730;10.294;2023-04-15T11:46:14;4.77;;;3.33;;
19231;SDS011;9750;48.730;10.294;2023-04-15T11:48:42;7.77;;;3.67;;
19231;SDS011;9750;48.730;10.294;2023-04-15T11:51:11;6.37;;;3.97;;
19231;SDS011;9750;48.730;10.294;2023-04-15T11:53:41;6.17;;;4.07;;
19231;SDS011;9750;48.730;10.294;2023-04-15T11:56:10;5.93;;;4.60;;
19231;SDS011;9750;48.730;10.294;2023-04-15T11:58:46;7.03;;;4.80;;
19231;SDS011;9750;48.730;10.294;2023-04-15T12:01:21;6.63;;;4.33;;
19231;SDS011;9750;48.730;10.294;2023-04-15T12:03:56;5.93;;;4.67;;
19231;SDS011;9750;48.730;10.294;2023-04-15T12:06:28;5.47;;;4.57;;
19231;SDS011;9750;48.730;10.294;2023-04-15T12:09:02;5.60;;;4.10;;
19231;SDS011;9750;48.730;10.294;2023-04-15T12:11:38;6.63;;;3.97;;
19231;SDS011;9750;48.730;10.294;2023-04-15T12:14:11;4.23;;;3.30;;
19231;SDS011;9750;48.730;10.294;2023-04-15T12:22:24;4.53;;;3.80;;
19231;SDS011;9750;48.730;10.294;2023-04-15T12:30:11;4.57;;;2.60;;
19231;SDS011;9750;48.730;10.294;2023-04-15T12:32:39;4.73;;;2.73;;
19231;SDS011;9750;48.730;10.294;2023-04-15T12:35:07;4.50;;;2.80;;
19231;SDS011;9750;48.730;10.294;2023-04-15T12:37:34;3.53;;;2.97;;
19231;SDS011;9750;48.730;10.294;2023-04-15T12:40:01;4.83;;;2.70;;
19231;SDS011;9750;48.730;10.294;2023-04-15T12:42:35;3.27;;;2.70;;
19231;SDS011;9750;48.730;10.294;2023-04-15T12:45:36;3.50;;;2.77;;
19231;SDS011;9750;48.730;10.294;2023-04-15T12:48:05;4.57;;;2.67;;
19231;SDS011;9750;48.730;10.294;2023-04-15T12:50:33;4.07;;;2.23;;
19231;SDS011;9750;48.730;10.294;2023-04-15T12:53:00;3.37;;;2.50;;
19231;SDS011;9750;48.730;10.294;2023-04-15T12:55:28;3.47;;;2.50;;
19231;SDS011;9750;48.730;10.294;2023-04-15T12:57:56;3.00;;;2.60;;
19231;SDS011;9750;48.730;10.294;2023-04-15T13:00:23;4.50;;;2.53;;
19231;SDS011;9750;48.730;10.294;2023-04-15T13:02:55;3.83;;;3.20;;
19231;SDS011;9750;48.730;10.294;2023-04-15T13:05:34;3.47;;;3.17;;
19231;SDS011;9750;48.730;10.294;2023-04-15T13:10:53;4.80;;;3.13;;
19231;SDS011;9750;48.730;10.294;2023-04-15T13:13:20;3.63;;;3.00;;
19231;SDS011;9750;48.730;10.294;2023-04-15T13:15:47;5.23;;;3.00;;
19231;SDS011;9750;48.730;10.294;2023-04-15T13:18:16;4.90;;;3.63;;
19231;SDS011;9750;48.730;10.294;2023-04-15T13:20:44;4.77;;;3.23;;
19231;SDS011;9750;48.730;10.294;2023-04-15T13:23:11;4.33;;;3.30;;
19231;SDS011;9750;48.730;10.294;2023-04-15T13:25:38;3.53;;;3.23;;
19231;SDS011;9750;48.730;10.294;2023-04-15T13:28:06;4.37;;;3.30;;
19231;SDS011;9750;48.730;10.294;2023-04-15T13:30:39;3.53;;;3.20;;
19231;SDS011;9750;48.730;10.294;2023-04-15T13:33:08;4.17;;;3.13;;
19231;SDS011;9750;48.730;10.294;2023-04-15T13:35:37;5.13;;;3.23;;
19231;SDS011;9750;48.730;10.294;2023-04-15T13:38:05;5.17;;;2.90;;
19231;SDS011;9750;48.730;10.294;2023-04-15T13:40:33;4.03;;;2.77;;
19231;SDS011;9750;48.730;10.294;2023-04-15T13:43:00;2.80;;;2.47;;
19231;SDS011;9750;48.730;10.294;2023-04-15T13:45:28;3.10;;;2.70;;
19231;SDS011;9750;48.730;10.294;2023-04-15T13:47:55;3.27;;;2.53;;
19231;SDS011;9750;48.730;10.294;2023-04-15T13:50:22;3.10;;;2.70;;
19231;SDS011;9750;48.730;10.294;2023-04-15T13:53:01;3.10;;;2.80;;
19231;SDS011;9750;48.730;10.294;2023-04-15T13:55:28;3.37;;;3.03;;
19231;SDS011;9750;48.730;10.294;2023-04-15T13:57:55;4.63;;;3.43;;
19231;SDS011;9750;48.730;10.294;2023-04-15T14:00:22;3.73;;;2.87;;
19231;SDS011;9750;48.730;10.294;2023-04-15T14:02:50;60.13;;;23.63;;
19231;SDS011;9750;48.730;10.294;2023-04-15T14:05:17;14.70;;;4.20;;
19231;SDS011;9750;48.730;10.294;2023-04-15T14:07:44;12.33;;;4.13;;
19231;SDS011;9750;48.730;10.294;2023-04-15T14:10:13;3.60;;;2.60;;
19231;SDS011;9750;48.730;10.294;2023-04-15T14:12:41;3.43;;;2.33;;
19231;SDS011;9750;48.730;10.294;2023-04-15T14:15:08;3.83;;;2.33;;
19231;SDS011;9750;48.730;10.294;2023-04-15T14:17:36;3.87;;;2.00;;
19231;SDS011;9750;48.730;10.294;2023-04-15T14:20:05;3.47;;;2.47;;
19231;SDS011;9750;48.730;10.294;2023-04-15T14:22:33;3.93;;;2.60;;
19231;SDS011;9750;48.730;10.294;2023-04-15T14:25:01;4.33;;;2.40;;
19231;SDS011;9750;48.730;10.294;2023-04-15T14:27:30;3.73;;;2.33;;
19231;SDS011;9750;48.730;10.294;2023-04-15T14:29:57;5.13;;;2.20;;
19231;SDS011;9750;48.730;10.294;2023-04-15T14:32:25;3.53;;;2.93;;
19231;SDS011;9750;48.730;10.294;2023-04-15T14:34:52;4.30;;;3.80;;
19231;SDS011;9750;48.730;10.294;2023-04-15T14:37:20;7.77;;;4.10;;
19231;SDS011;9750;48.730;10.294;2023-04-15T14:39:47;5.67;;;4.50;;
19231;SDS011;9750;48.730;10.294;2023-04-15T14:42:14;5.90;;;5.30;;
19231;SDS011;9750;48.730;10.294;2023-04-15T14:44:43;5.30;;;4.80;;
19231;SDS011;9750;48.730;10.294;2023-04-15T14:47:14;4.63;;;4.20;;
19231;SDS011;9750;48.730;10.294;2023-04-15T14:49:42;3.50;;;3.20;;
19231;SDS011;9750;48.730;10.294;2023-04-15T14:52:09;3.60;;;2.97;;
19231;SDS011;9750;48.730;10.294;2023-04-15T15:02:38;3.33;;;2.43;;
19231;SDS011;9750;48.730;10.294;2023-04-15T15:05:21;3.27;;;2.43;;
19231;SDS011;9750;48.730;10.294;2023-04-15T15:08:19;2.77;;;2.23;;
19231;SDS011;9750;48.730;10.294;2023-04-15T15:10:48;3.33;;;2.40;;
19231;SDS011;9750;48.730;10.294;2023-04-15T15:13:32;2.33;;;2.13;;
19231;SDS011;9750;48.730;10.294;2023-04-15T15:16:03;2.80;;;2.33;;
19231;SDS011;9750;48.730;10.294;2023-04-15T15:21:29;2.73;;;2.50;;
19231;SDS011;9750;48.730;10.294;2023-04-15T15:24:09;3.00;;;2.50;;
19231;SDS011;9750;48.730;10.294;2023-04-15T15:26:45;3.20;;;2.90;;
19231;SDS011;9750;48.730;10.294;2023-04-15T15:29:22;5.10;;;4.60;;
19231;SDS011;9750;48.730;10.294;2023-04-15T15:32:13;3.17;;;2.53;;
19231;SDS011;9750;48.730;10.294;2023-04-15T15:34:42;3.80;;;2.93;;
19231;SDS011;9750;48.730;10.294;2023-04-15T15:43:50;3.27;;;2.30;;
19231;SDS011;9750;48.730;10.294;2023-04-15T15:46:17;4.07;;;2.57;;
19231;SDS011;9750;48.730;10.294;2023-04-15T15:48:45;2.30;;;2.10;;
19231;SDS011;9750;48.730;10.294;2023-04-15T15:51:13;3.07;;;2.00;;
19231;SDS011;9750;48.730;10.294;2023-04-15T15:53:41;2.30;;;2.10;;
19231;SDS011;9750;48.730;10.294;2023-04-15T15:56:09;4.97;;;4.43;;
19231;SDS011;9750;48.730;10.294;2023-04-15T15:58:36;11.87;;;9.23;;
19231;SDS011;9750;48.730;10.294;2023-04-15T16:01:03;12.27;;;10.57;;
19231;SDS011;9750;48.730;10.294;2023-04-15T16:03:31;1.60;;;1.50;;